To NAV CANADA Home Page Login to a new session Search on AWWS site Feedback and Comments Disclaimer Vers la page française équivalente Tips FAQ What's new on the site To the Forecasts and Observations / NOTAM section To "File a Flight Plan" website Publications and other links Update of the User's profile FIC Telephone Numbers My Weather Data Folder Route Weather Data Regional Weather Data Local Weather Data To the Forecasts and Observations / NOTAM section
Request Generated 02/24/2017 at 03:36:57 UTC . Weather information available at that time is displayed.

METAR/TAF

SCHEFFERVILLE/QC    (show WxCam)

METAR CYKL 240300Z AUTO 35006KT 9SM -SN FEW022 OVC028 M14/M15 A2964
RMK SLP083=
SPECI CYKL 240249Z AUTO 35006KT 9SM -SN SCT020 OVC028 M14/M15 A2964
RMK SLP083=
METAR CYKL 240200Z AUTO 36007KT 7SM -SN OVC018 M13/M15 A2964 RMK
SLP082=
SPECI CYKL 240156Z AUTO 36007KT 6SM -SN OVC018 M13/M15 A2964 RMK
SLP082=
SPECI CYKL 240149Z AUTO 35006KT 3SM -SN OVC016 M13/M14 A2964 RMK
SLP082=
SPECI CYKL 240143Z AUTO 35007KT 2SM -SN OVC016 M13/M14 A2964 RMK VIS
VRB 1-3 SLP081=
SPECI CYKL 240141Z AUTO 35005KT 1 3/4SM -SN OVC016 M13/M14 A2964 RMK
VIS VRB 1-3 SLP082=
SPECI CYKL 240121Z AUTO 36008KT 2SM -SN OVC014 M13/M14 A2964 RMK VIS
VRB 1 1/4-3 SLP083=
METAR CYKL 240100Z AUTO 36008KT 4SM -SN OVC014 M12/M14 A2964 RMK
SLP083=

TAF CYKL 240138Z 2402/2414 36008KT 2SM -SN OVC015 TEMPO 2402/2412
P6SM -SN OVC025 PROB30 2402/2412 11/2SM -SN BKN006
FM241200 01010KT P6SM SCT015 BKN050
RMK FCST BASED ON AUTO OBS. NXT FCST BY 240800Z=
Your time UTC time
Weather data provided by Environment Canada and NAV CANADA